createdAt,value
2023-02-27T05:15:11.150Z,3.10
2023-02-27T05:16:11.150Z,3.60
2023-02-27T05:17:18.170Z,3.60
2023-02-27T05:18:11.098Z,3.60
2023-02-27T05:19:11.087Z,3.30
2023-02-27T05:20:11.047Z,3.70
2023-02-27T05:21:11.027Z,3.50
2023-02-27T05:22:11.018Z,3.90
2023-02-27T05:23:11.020Z,3.40
2023-02-27T05:24:11.039Z,3.40
2023-02-27T05:25:10.979Z,3.60
2023-02-27T05:26:10.987Z,3.20
2023-02-27T05:27:10.949Z,3.90
2023-02-27T05:28:10.961Z,3.40
2023-02-27T05:29:10.929Z,3.40
2023-02-27T05:30:10.926Z,3.30
2023-02-27T05:31:10.907Z,3.40
2023-02-27T05:32:11.081Z,3.70
2023-02-27T05:33:10.885Z,3.30
2023-02-27T05:34:10.873Z,3.70
2023-02-27T05:35:10.854Z,3.70
2023-02-27T05:36:10.874Z,3.60
2023-02-27T05:37:10.874Z,3.50
2023-02-27T05:38:10.821Z,3.70
2023-02-27T05:39:10.810Z,3.50
2023-02-27T05:40:10.792Z,3.40
2023-02-27T05:41:10.772Z,3.60
2023-02-27T05:42:10.768Z,3.60
2023-02-27T05:43:10.749Z,3.60
2023-02-27T05:44:10.750Z,3.60
2023-02-27T05:45:10.727Z,3.30
2023-02-27T05:46:10.803Z,3.40
2023-02-27T05:47:10.721Z,4.00
2023-02-27T05:48:10.698Z,3.90
2023-02-27T05:49:10.670Z,3.80
2023-02-27T05:50:10.664Z,3.60
2023-02-27T05:51:10.645Z,3.90
2023-02-27T05:52:10.667Z,4.00
2023-02-27T05:53:10.632Z,3.70
2023-02-27T05:54:10.612Z,3.70
2023-02-27T05:55:10.594Z,3.60
2023-02-27T05:56:10.595Z,3.00
2023-02-27T05:57:10.660Z,3.70
2023-02-27T05:58:10.565Z,3.60
2023-02-27T05:59:10.552Z,3.90
2023-02-27T06:00:10.539Z,4.00
2023-02-27T06:01:10.516Z,3.90
2023-02-27T06:02:10.523Z,3.50
2023-02-27T06:03:10.552Z,3.80
2023-02-27T06:04:10.495Z,3.50
2023-02-27T06:05:10.476Z,4.10
2023-02-27T06:06:10.455Z,3.60
2023-02-27T06:07:10.444Z,3.80
2023-02-27T06:08:10.443Z,3.90
2023-02-27T06:09:10.424Z,3.60
2023-02-27T06:10:10.415Z,3.50
2023-02-27T06:11:10.566Z,3.40
2023-02-27T06:12:10.385Z,3.70
2023-02-27T06:13:10.363Z,3.70
2023-02-27T06:14:10.374Z,3.90
2023-02-27T06:15:10.343Z,4.20
2023-02-27T06:16:10.340Z,4.20
2023-02-27T06:17:10.321Z,4.10
2023-02-27T06:18:10.313Z,4.40
2023-02-27T06:19:10.303Z,4.20
2023-02-27T06:20:10.286Z,4.20
2023-02-27T06:21:10.264Z,5.00
2023-02-27T06:22:10.275Z,4.70
2023-02-27T06:23:10.251Z,4.50
2023-02-27T06:24:10.241Z,4.40
2023-02-27T06:25:10.246Z,5.20
2023-02-27T06:26:10.201Z,5.00
2023-02-27T06:27:10.193Z,4.50
2023-02-27T06:28:10.195Z,4.80
2023-02-27T06:29:10.178Z,4.70
2023-02-27T06:30:10.205Z,4.20
2023-02-27T06:31:10.184Z,4.20
2023-02-27T06:32:10.248Z,4.40
2023-02-27T06:33:10.116Z,5.00
2023-02-27T06:34:10.123Z,4.60
2023-02-27T06:35:10.101Z,4.60
2023-02-27T06:36:10.128Z,4.60
2023-02-27T06:37:10.055Z,4.50
2023-02-27T06:38:10.114Z,4.70
2023-02-27T06:39:10.047Z,4.00
2023-02-27T06:40:10.097Z,4.40
2023-02-27T06:41:10.018Z,4.10
2023-02-27T06:42:10.004Z,4.20
2023-02-27T06:43:09.983Z,4.60
2023-02-27T06:44:09.993Z,4.20
2023-02-27T06:45:09.961Z,4.50
2023-02-27T06:46:09.975Z,5.00
2023-02-27T06:47:09.929Z,4.00
2023-02-27T06:48:09.930Z,4.10
2023-02-27T06:49:09.918Z,4.40
2023-02-27T06:50:09.900Z,4.10
2023-02-27T06:51:09.877Z,4.10
2023-02-27T06:52:09.868Z,3.90
2023-02-27T06:53:09.847Z,4.30
2023-02-27T06:54:09.855Z,3.70
2023-02-27T06:55:09.838Z,3.40
2023-02-27T06:56:09.815Z,3.90
2023-02-27T06:57:09.803Z,4.10
2023-02-27T06:58:09.809Z,4.50
2023-02-27T06:59:09.783Z,4.40
2023-02-27T07:00:09.765Z,3.90
2023-02-27T07:01:09.760Z,4.40
2023-02-27T07:02:09.734Z,4.60
2023-02-27T07:03:09.725Z,4.40
2023-02-27T07:04:09.734Z,4.20
2023-02-27T07:05:09.697Z,4.30
2023-02-27T07:06:09.696Z,4.20
2023-02-27T07:07:36.467Z,4.30
2023-02-27T07:08:10.653Z,4.40
2023-02-27T07:09:09.652Z,4.90
2023-02-27T07:10:09.663Z,5.70
2023-02-27T07:11:09.646Z,5.50
2023-02-27T07:12:09.615Z,5.00
2023-02-27T07:13:09.602Z,4.40
2023-02-27T07:14:09.618Z,4.20
2023-02-27T07:15:09.619Z,4.00
2023-02-27T07:16:09.612Z,4.10
2023-02-27T07:17:09.557Z,4.20
2023-02-27T07:18:09.543Z,3.70
2023-02-27T07:19:09.524Z,4.30
2023-02-27T07:20:09.521Z,4.50
2023-02-27T07:21:09.492Z,5.10
2023-02-27T07:22:09.486Z,4.60
2023-02-27T07:23:09.463Z,4.70
2023-02-27T07:24:09.460Z,4.50
2023-02-27T07:25:09.448Z,4.70
2023-02-27T07:26:09.433Z,3.80
2023-02-27T07:27:09.439Z,4.00
2023-02-27T07:28:09.441Z,4.70
2023-02-27T07:29:09.387Z,4.90
2023-02-27T07:30:09.396Z,3.60
2023-02-27T07:31:09.411Z,3.30
2023-02-27T07:32:09.396Z,3.20
2023-02-27T07:33:09.350Z,3.40
2023-02-27T07:34:09.327Z,3.60
2023-02-27T07:35:09.324Z,3.50
2023-02-27T07:36:09.305Z,3.60
2023-02-27T07:37:09.287Z,3.30
2023-02-27T07:38:09.278Z,3.60
2023-02-27T07:39:09.268Z,3.50
2023-02-27T07:40:09.267Z,3.50
2023-02-27T07:41:15.878Z,3.30
2023-02-27T07:42:10.238Z,3.40
2023-02-27T07:43:09.218Z,3.50
2023-02-27T07:44:09.218Z,3.80
2023-02-27T07:45:09.199Z,3.50
2023-02-27T07:46:09.215Z,3.30
2023-02-27T07:47:09.160Z,3.20
2023-02-27T07:48:09.160Z,3.40
2023-02-27T07:49:09.138Z,3.40
2023-02-27T07:50:09.148Z,3.20
2023-02-27T07:51:09.118Z,3.30
2023-02-27T07:52:09.107Z,3.40
2023-02-27T07:53:09.086Z,3.30
2023-02-27T07:54:09.078Z,3.20
2023-02-27T07:55:09.068Z,3.50
2023-02-27T07:56:09.056Z,3.40
2023-02-27T07:57:09.032Z,3.10
2023-02-27T07:58:09.018Z,3.20
2023-02-27T07:59:09.006Z,3.10
2023-02-27T08:00:09.021Z,3.30
2023-02-27T08:01:08.985Z,3.50
2023-02-27T08:02:08.975Z,3.50
2023-02-27T08:03:08.987Z,3.40
2023-02-27T08:04:08.986Z,3.20
2023-02-27T08:05:08.944Z,3.20
2023-02-27T08:06:08.926Z,3.10
2023-02-27T08:07:08.917Z,3.10
2023-02-27T08:08:08.907Z,3.10
2023-02-27T08:09:08.903Z,3.30
2023-02-27T08:10:08.888Z,3.30
2023-02-27T08:11:08.855Z,3.20
2023-02-27T08:12:08.857Z,3.00
2023-02-27T08:13:08.828Z,2.90
2023-02-27T08:14:08.823Z,3.60
2023-02-27T08:15:08.819Z,2.90
2023-02-27T08:16:08.822Z,2.80
2023-02-27T08:17:09.624Z,3.10
2023-02-27T08:18:08.769Z,2.90
2023-02-27T08:19:08.753Z,2.90
2023-02-27T08:20:08.762Z,3.20
2023-02-27T08:21:08.750Z,2.90
2023-02-27T08:22:08.725Z,3.10
2023-02-27T08:23:08.715Z,3.20
2023-02-27T08:24:08.740Z,2.80
2023-02-27T08:25:08.810Z,2.80
2023-02-27T08:26:08.664Z,3.10
2023-02-27T08:27:08.659Z,2.70
2023-02-27T08:28:08.640Z,2.80
2023-02-27T08:29:08.631Z,3.10
2023-02-27T08:30:08.608Z,2.90
2023-02-27T08:31:08.656Z,2.60
2023-02-27T08:32:08.614Z,2.30
2023-02-27T08:33:08.597Z,2.60
2023-02-27T08:34:10.616Z,2.60
2023-02-27T08:35:08.544Z,2.50
2023-02-27T08:36:08.600Z,2.40
2023-02-27T08:37:08.525Z,3.10
2023-02-27T08:38:08.514Z,2.60
2023-02-27T08:39:08.504Z,2.20
2023-02-27T08:40:08.487Z,2.70
2023-02-27T08:41:08.483Z,2.60
2023-02-27T08:42:08.452Z,2.30
2023-02-27T08:43:08.442Z,2.50
2023-02-27T08:44:08.427Z,3.10
2023-02-27T08:45:08.426Z,2.60
2023-02-27T08:46:08.443Z,2.10
2023-02-27T08:47:08.389Z,2.50
2023-02-27T08:48:08.380Z,2.40
2023-02-27T08:49:08.368Z,2.30
2023-02-27T08:50:08.351Z,2.10
2023-02-27T08:51:08.362Z,2.00
2023-02-27T08:52:08.323Z,2.10
2023-02-27T08:53:08.320Z,2.00
2023-02-27T08:54:08.299Z,2.80
2023-02-27T08:55:08.279Z,2.00
2023-02-27T08:56:08.282Z,1.90
2023-02-27T08:57:08.248Z,2.20
2023-02-27T08:58:08.237Z,2.30
2023-02-27T08:59:08.229Z,2.00
2023-02-27T09:00:08.324Z,2.30
2023-02-27T09:01:08.304Z,2.30
2023-02-27T09:02:08.197Z,2.30
2023-02-27T09:03:08.220Z,2.30
2023-02-27T09:04:08.704Z,1.90
2023-02-27T09:05:08.157Z,2.30
2023-02-27T09:06:08.158Z,2.20
2023-02-27T09:07:08.135Z,2.10
2023-02-27T09:08:08.125Z,2.20
2023-02-27T09:09:08.120Z,2.20
2023-02-27T09:10:08.095Z,2.20
2023-02-27T09:11:08.100Z,3.00
2023-02-27T09:12:08.085Z,2.60
2023-02-27T09:13:08.053Z,1.90
2023-02-27T09:14:08.048Z,2.00
2023-02-27T09:15:08.034Z,2.00
2023-02-27T09:16:08.077Z,2.30
2023-02-27T09:17:08.007Z,1.90
2023-02-27T09:18:08.001Z,1.90
2023-02-27T09:19:07.966Z,2.60
2023-02-27T09:20:07.968Z,2.00
2023-02-27T09:21:07.957Z,1.90
2023-02-27T09:22:07.938Z,2.20
2023-02-27T09:23:07.934Z,1.90
2023-02-27T09:24:19.232Z,2.00
2023-02-27T09:25:08.903Z,1.60
2023-02-27T09:26:07.898Z,1.70
2023-02-27T09:27:07.879Z,1.50
2023-02-27T09:28:07.860Z,1.80
2023-02-27T09:29:07.841Z,1.60
2023-02-27T09:30:07.843Z,1.80
2023-02-27T09:31:07.825Z,1.80
2023-02-27T09:32:07.953Z,2.00
2023-02-27T09:33:07.786Z,1.70
2023-02-27T09:34:07.772Z,1.60
2023-02-27T09:35:07.764Z,1.90
2023-02-27T09:36:07.891Z,1.80
2023-02-27T09:37:07.743Z,1.70
2023-02-27T09:38:07.733Z,1.60
2023-02-27T09:39:07.706Z,1.80
2023-02-27T09:40:07.702Z,1.70
2023-02-27T09:41:07.713Z,1.90
2023-02-27T09:42:07.672Z,1.80
2023-02-27T09:43:07.662Z,1.60
2023-02-27T09:44:07.653Z,1.40
2023-02-27T09:45:07.630Z,1.70
2023-02-27T09:46:07.669Z,1.20
2023-02-27T09:47:07.622Z,1.40
2023-02-27T09:48:07.619Z,1.50
2023-02-27T09:49:07.571Z,1.60
2023-02-27T09:50:07.570Z,1.30
2023-02-27T09:51:07.560Z,1.60
2023-02-27T09:52:07.556Z,1.80
2023-02-27T09:53:07.521Z,1.70
2023-02-27T09:54:07.526Z,1.60
2023-02-27T09:55:07.560Z,1.50
2023-02-27T09:56:07.502Z,1.50
2023-02-27T09:57:07.499Z,2.00
2023-02-27T09:58:07.460Z,1.50
2023-02-27T09:59:07.452Z,1.60
2023-02-27T10:00:07.441Z,2.20
2023-02-27T10:01:07.423Z,1.40
2023-02-27T10:02:07.468Z,1.50
2023-02-27T10:03:07.431Z,1.60
2023-02-27T10:04:09.391Z,1.50
2023-02-27T10:05:07.368Z,1.40
2023-02-27T10:06:07.358Z,1.40
2023-02-27T10:07:07.359Z,1.50
2023-02-27T10:08:07.330Z,1.60
2023-02-27T10:09:07.309Z,1.40
2023-02-27T10:10:07.304Z,1.40
2023-02-27T10:11:07.302Z,1.40
2023-02-27T10:12:07.629Z,1.50
2023-02-27T10:13:07.260Z,1.30
2023-02-27T10:14:07.251Z,1.40
2023-02-27T10:15:07.243Z,1.30
2023-02-27T10:16:07.335Z,1.20
2023-02-27T10:17:07.287Z,1.20
2023-02-27T10:18:20.202Z,1.90
2023-02-27T10:19:08.189Z,1.30
2023-02-27T10:20:07.173Z,1.30
2023-02-27T10:21:07.162Z,1.30
2023-02-27T10:22:07.174Z,1.40
2023-02-27T10:23:07.141Z,1.40
2023-02-27T10:24:07.824Z,1.50
2023-02-27T10:25:18.124Z,1.20
2023-02-27T10:26:08.094Z,1.10
2023-02-27T10:27:07.082Z,1.10
2023-02-27T10:28:07.080Z,1.10
2023-02-27T10:29:07.061Z,1.10
2023-02-27T10:30:07.515Z,1.10
2023-02-27T10:31:07.040Z,1.80
2023-02-27T10:32:07.083Z,1.50
2023-02-27T10:33:07.025Z,1.30
2023-02-27T10:34:06.992Z,1.30
2023-02-27T10:35:06.977Z,1.20
2023-02-27T10:36:07.014Z,1.40
2023-02-27T10:37:06.958Z,1.20
2023-02-27T10:38:06.951Z,1.20
2023-02-27T10:39:06.989Z,1.10
2023-02-27T10:40:06.910Z,1.10
2023-02-27T10:41:06.897Z,1.40
2023-02-27T10:42:06.894Z,1.20
2023-02-27T10:43:06.882Z,1.40
2023-02-27T10:44:06.880Z,1.30
2023-02-27T10:45:06.840Z,1.50
2023-02-27T10:46:06.914Z,1.50
2023-02-27T10:47:06.822Z,1.30
2023-02-27T10:48:06.818Z,1.50
2023-02-27T10:49:06.780Z,1.70
2023-02-27T10:50:06.777Z,1.20
2023-02-27T10:51:06.804Z,1.30
2023-02-27T10:52:06.761Z,1.20
2023-02-27T10:53:06.778Z,1.10
2023-02-27T10:54:06.727Z,1.30
2023-02-27T10:55:06.698Z,1.70
2023-02-27T10:56:06.691Z,1.20
2023-02-27T10:57:06.686Z,1.20
2023-02-27T10:58:06.677Z,1.10
2023-02-27T10:59:06.647Z,1.20
2023-02-27T11:00:06.660Z,1.30
2023-02-27T11:01:06.628Z,1.60
2023-02-27T11:02:06.709Z,1.30
2023-02-27T11:03:06.615Z,1.20
2023-02-27T11:04:06.585Z,1.20
2023-02-27T11:05:06.586Z,1.30
2023-02-27T11:06:06.565Z,1.70
2023-02-27T11:07:06.553Z,1.30
2023-02-27T11:08:06.555Z,1.60
2023-02-27T11:09:06.514Z,1.40
2023-02-27T11:10:06.514Z,1.40
2023-02-27T11:11:06.497Z,1.70
2023-02-27T11:12:06.473Z,1.40
2023-02-27T11:13:06.462Z,1.30
2023-02-27T11:14:06.465Z,1.50
2023-02-27T11:15:06.468Z,2.10
2023-02-27T11:16:06.476Z,1.30
2023-02-27T11:17:06.413Z,1.50
2023-02-27T11:18:13.544Z,1.50
2023-02-27T11:19:06.387Z,1.70
2023-02-27T11:20:06.372Z,2.10
2023-02-27T11:21:06.359Z,1.70
2023-02-27T11:22:06.356Z,1.50
2023-02-27T11:23:06.329Z,1.20
2023-02-27T11:24:06.328Z,1.10
2023-02-27T11:25:06.322Z,1.20
2023-02-27T11:26:06.301Z,1.10
2023-02-27T11:27:06.299Z,1.50
2023-02-27T11:28:06.270Z,1.10
2023-02-27T11:29:06.279Z,1.20
2023-02-27T11:30:06.240Z,1.20
2023-02-27T11:31:06.263Z,1.10
2023-02-27T11:32:06.267Z,1.30
2023-02-27T11:33:06.211Z,1.20
2023-02-27T11:34:06.200Z,1.10
2023-02-27T11:35:06.181Z,1.00
2023-02-27T11:36:06.285Z,1.20
2023-02-27T11:37:06.153Z,1.30
2023-02-27T11:38:06.135Z,1.00
2023-02-27T11:39:06.164Z,1.10
2023-02-27T11:40:06.110Z,1.00
2023-02-27T11:41:06.101Z,0.80
2023-02-27T11:42:06.081Z,1.10
2023-02-27T11:43:06.105Z,1.20
2023-02-27T11:44:06.077Z,1.00
2023-02-27T11:45:06.043Z,1.00
2023-02-27T11:46:40.210Z,1.20
2023-02-27T11:47:07.035Z,1.20
2023-02-27T11:48:06.005Z,0.90
2023-02-27T11:49:06.002Z,1.10
2023-02-27T11:50:06.012Z,1.10
2023-02-27T11:51:05.962Z,1.10
2023-02-27T11:52:05.958Z,1.10
2023-02-27T11:53:05.943Z,1.20
2023-02-27T11:54:05.932Z,1.10
2023-02-27T11:55:05.931Z,1.20
2023-02-27T11:56:05.918Z,1.20
2023-02-27T11:57:05.907Z,1.20
2023-02-27T11:58:05.868Z,1.40
2023-02-27T11:59:05.879Z,1.20
2023-02-27T12:00:05.843Z,1.10
2023-02-27T12:01:05.835Z,1.30
2023-02-27T12:02:05.814Z,1.30
2023-02-27T12:03:05.892Z,1.30
2023-02-27T12:04:05.840Z,1.60
2023-02-27T12:05:05.787Z,2.70
2023-02-27T12:06:05.763Z,1.90
2023-02-27T12:07:05.756Z,2.50
2023-02-27T12:08:05.771Z,1.90
2023-02-27T12:09:05.738Z,1.60
2023-02-27T12:10:05.730Z,1.30
2023-02-27T12:11:13.739Z,1.20
2023-02-27T12:12:06.702Z,1.20
2023-02-27T12:13:05.680Z,1.20
2023-02-27T12:14:05.655Z,1.30
2023-02-27T12:15:05.748Z,1.60
2023-02-27T12:16:05.681Z,1.30
2023-02-27T12:17:05.625Z,1.40
2023-02-27T12:18:05.608Z,1.40
2023-02-27T12:19:05.610Z,1.10
2023-02-27T12:20:05.596Z,1.20
2023-02-27T12:21:05.574Z,1.30
2023-02-27T12:22:05.554Z,2.10
2023-02-27T12:23:05.545Z,1.40
2023-02-27T12:24:05.534Z,1.20
2023-02-27T12:25:05.536Z,1.40
2023-02-27T12:26:05.505Z,1.30
2023-02-27T12:27:05.497Z,1.30
2023-02-27T12:28:05.484Z,1.20
2023-02-27T12:29:05.464Z,1.60
2023-02-27T12:30:05.469Z,1.40
2023-02-27T12:31:05.531Z,1.40
2023-02-27T12:32:05.590Z,1.40
2023-02-27T12:33:05.403Z,1.30
2023-02-27T12:34:05.414Z,1.40
2023-02-27T12:35:05.394Z,1.40
2023-02-27T12:36:05.404Z,2.30
2023-02-27T12:37:05.360Z,1.70
2023-02-27T12:38:07.290Z,1.20
2023-02-27T12:39:05.346Z,1.10
2023-02-27T12:40:05.310Z,1.50
2023-02-27T12:41:05.293Z,1.50
2023-02-27T12:42:05.286Z,1.40
2023-02-27T12:43:05.279Z,1.60
2023-02-27T12:44:05.264Z,1.30
2023-02-27T12:45:05.271Z,1.60
2023-02-27T12:46:05.321Z,1.40
2023-02-27T12:47:05.228Z,1.50
2023-02-27T12:48:05.210Z,1.50
2023-02-27T12:49:05.191Z,1.60
2023-02-27T12:50:05.188Z,1.60
2023-02-27T12:51:05.173Z,2.00
2023-02-27T12:52:05.147Z,1.90
2023-02-27T12:53:05.126Z,1.50
2023-02-27T12:54:05.116Z,1.60
2023-02-27T12:55:05.119Z,1.60
2023-02-27T12:56:05.087Z,1.50
2023-02-27T12:57:05.087Z,1.40
2023-02-27T12:58:05.058Z,1.50
2023-02-27T12:59:05.057Z,1.30
2023-02-27T13:00:05.059Z,1.40
2023-02-27T13:01:05.107Z,1.50
2023-02-27T13:02:05.017Z,1.20
2023-02-27T13:03:04.998Z,1.00
2023-02-27T13:04:05.022Z,1.20
2023-02-27T13:05:04.981Z,1.00
2023-02-27T13:06:04.971Z,1.10
2023-02-27T13:07:04.967Z,1.70
2023-02-27T13:08:04.952Z,1.30
2023-02-27T13:09:04.929Z,1.40
2023-02-27T13:10:04.932Z,1.20
2023-02-27T13:11:04.908Z,1.90
2023-02-27T13:12:04.895Z,2.70
2023-02-27T13:13:04.873Z,1.30
2023-02-27T13:14:04.862Z,1.30
2023-02-27T13:15:04.863Z,1.30
2023-02-27T13:16:04.854Z,1.30
2023-02-27T13:17:04.833Z,1.50
2023-02-27T13:18:04.814Z,1.50
2023-02-27T13:19:04.793Z,1.50
2023-02-27T13:20:04.807Z,1.30
2023-02-27T13:21:04.778Z,1.60
2023-02-27T13:22:04.765Z,1.10
2023-02-27T13:23:04.745Z,1.50
2023-02-27T13:24:04.740Z,1.30
2023-02-27T13:25:04.724Z,1.20
2023-02-27T13:26:04.709Z,1.20
2023-02-27T13:27:04.687Z,1.10
2023-02-27T13:28:04.685Z,1.60
2023-02-27T13:29:04.670Z,1.60
2023-02-27T13:30:04.665Z,1.30
2023-02-27T13:31:04.636Z,1.20
2023-02-27T13:32:04.782Z,1.20
2023-02-27T13:33:04.810Z,1.90
2023-02-27T13:34:04.609Z,1.40
2023-02-27T13:35:04.585Z,1.00
2023-02-27T13:36:04.622Z,1.40
2023-02-27T13:37:04.603Z,1.30
2023-02-27T13:38:04.545Z,1.30
2023-02-27T13:39:04.533Z,1.50
2023-02-27T13:40:04.526Z,1.10
2023-02-27T13:41:04.516Z,1.10
2023-02-27T13:42:04.494Z,1.40
2023-02-27T13:43:04.476Z,1.60
2023-02-27T13:44:04.484Z,0.90
2023-02-27T13:45:04.446Z,1.10
2023-02-27T13:46:04.560Z,2.20
2023-02-27T13:47:04.447Z,1.10
2023-02-27T13:48:04.441Z,1.00
2023-02-27T13:49:04.396Z,1.30
2023-02-27T13:50:04.387Z,1.70
2023-02-27T13:51:04.389Z,1.40
2023-02-27T13:52:04.366Z,1.10
2023-02-27T13:53:04.344Z,1.20
2023-02-27T13:54:04.349Z,1.30
2023-02-27T13:55:11.753Z,1.20
2023-02-27T13:56:05.325Z,1.30
2023-02-27T13:57:04.309Z,1.20
2023-02-27T13:58:04.283Z,1.00
2023-02-27T13:59:04.267Z,0.80
2023-02-27T14:00:04.261Z,1.70
2023-02-27T14:01:04.280Z,1.20
2023-02-27T14:02:04.369Z,1.20
2023-02-27T14:03:04.235Z,1.60
2023-02-27T14:04:04.202Z,1.70
2023-02-27T14:05:04.190Z,1.30
2023-02-27T14:06:04.288Z,1.80
2023-02-27T14:07:04.156Z,1.40
2023-02-27T14:08:04.158Z,1.60
2023-02-27T14:09:14.277Z,1.20
2023-02-27T14:10:05.124Z,1.50
2023-02-27T14:11:04.122Z,1.50
2023-02-27T14:12:04.094Z,1.60
2023-02-27T14:13:04.074Z,1.50
2023-02-27T14:14:04.129Z,1.10
2023-02-27T14:15:04.051Z,2.10
2023-02-27T14:16:04.063Z,1.40
2023-02-27T14:17:04.040Z,1.10
2023-02-27T14:18:14.277Z,1.20
2023-02-27T14:19:04.990Z,0.90
2023-02-27T14:20:04.006Z,1.00
2023-02-27T14:21:03.968Z,1.50
2023-02-27T14:22:03.977Z,2.10
2023-02-27T14:23:03.952Z,1.10
2023-02-27T14:24:03.929Z,0.90
2023-02-27T14:25:03.941Z,1.10
2023-02-27T14:26:03.907Z,1.60
2023-02-27T14:27:04.032Z,2.50
2023-02-27T14:28:03.881Z,1.90
2023-02-27T14:29:03.869Z,0.90
2023-02-27T14:30:03.867Z,1.30
2023-02-27T14:31:03.900Z,1.40
2023-02-27T14:32:03.892Z,1.00
2023-02-27T14:33:03.821Z,1.50
2023-02-27T14:34:03.797Z,1.20
2023-02-27T14:35:03.786Z,1.10
2023-02-27T14:36:03.821Z,1.00
2023-02-27T14:37:03.769Z,1.00
2023-02-27T14:38:03.752Z,0.90
2023-02-27T14:39:03.737Z,1.00
2023-02-27T14:40:03.715Z,1.00
2023-02-27T14:41:03.715Z,1.80
2023-02-27T14:42:03.741Z,1.60
2023-02-27T14:43:03.705Z,1.40
2023-02-27T14:44:03.669Z,0.90
2023-02-27T14:45:03.657Z,1.10
2023-02-27T14:46:03.674Z,1.00
2023-02-27T14:47:03.661Z,1.60
2023-02-27T14:48:03.618Z,1.30
2023-02-27T14:49:03.620Z,1.30
2023-02-27T14:50:03.589Z,1.30
2023-02-27T14:51:03.580Z,1.40
2023-02-27T14:52:03.607Z,1.50
2023-02-27T14:53:03.555Z,1.00
2023-02-27T14:54:03.538Z,1.40
2023-02-27T14:55:03.534Z,1.00
2023-02-27T14:56:03.507Z,1.10
2023-02-27T14:57:03.506Z,1.30
2023-02-27T14:58:03.497Z,1.10
2023-02-27T14:59:05.316Z,0.90
2023-02-27T15:00:03.458Z,1.50
2023-02-27T15:01:03.516Z,1.30
2023-02-27T15:02:03.543Z,1.70
2023-02-27T15:03:03.428Z,1.70
2023-02-27T15:04:03.580Z,3.50
2023-02-27T15:05:03.407Z,1.90
2023-02-27T15:06:03.395Z,1.70
2023-02-27T15:07:03.372Z,1.20
2023-02-27T15:08:03.372Z,1.60
2023-02-27T15:09:03.353Z,1.50
2023-02-27T15:10:04.684Z,1.10
2023-02-27T15:11:03.317Z,1.50
2023-02-27T15:12:04.793Z,0.90
2023-02-27T15:13:03.297Z,1.30
2023-02-27T15:14:03.277Z,1.10
2023-02-27T15:15:03.333Z,1.20
2023-02-27T15:16:14.993Z,1.40
2023-02-27T15:17:04.240Z,1.30
2023-02-27T15:18:03.237Z,1.00
2023-02-27T15:19:03.235Z,1.00
2023-02-27T15:20:03.200Z,1.50
2023-02-27T15:21:03.192Z,1.60
2023-02-27T15:22:05.398Z,1.20
2023-02-27T15:23:03.174Z,1.30
2023-02-27T15:24:03.147Z,1.10
2023-02-27T15:25:03.140Z,1.20
2023-02-27T15:26:03.115Z,1.20
2023-02-27T15:27:03.112Z,1.20
2023-02-27T15:28:03.120Z,1.00
2023-02-27T15:29:03.099Z,1.50
2023-02-27T15:30:03.126Z,1.30
2023-02-27T15:31:03.104Z,1.30
2023-02-27T15:32:03.090Z,1.10
2023-02-27T15:33:03.058Z,1.20
2023-02-27T15:34:03.019Z,1.10
2023-02-27T15:35:03.019Z,1.30
2023-02-27T15:36:03.052Z,1.20
2023-02-27T15:37:03.004Z,1.00
2023-02-27T15:38:02.970Z,1.00
2023-02-27T15:39:02.970Z,1.80
2023-02-27T15:40:02.930Z,1.40
2023-02-27T15:41:02.923Z,1.50
2023-02-27T15:42:02.907Z,1.20
2023-02-27T15:43:02.926Z,1.00
2023-02-27T15:44:02.904Z,2.30
2023-02-27T15:45:02.873Z,1.10
2023-02-27T15:46:02.860Z,0.90
2023-02-27T15:47:02.841Z,0.90
2023-02-27T15:48:02.856Z,1.20
2023-02-27T15:49:02.813Z,1.40
2023-02-27T15:50:02.810Z,1.40
2023-02-27T15:51:02.793Z,1.40
2023-02-27T15:52:02.773Z,1.50
2023-02-27T15:53:02.761Z,1.50
2023-02-27T15:54:02.783Z,1.50
2023-02-27T15:55:02.749Z,1.60
2023-02-27T15:56:02.720Z,1.20
2023-02-27T15:57:02.707Z,1.40
2023-02-27T15:58:03.782Z,1.30
2023-02-27T15:59:02.688Z,1.30
2023-02-27T16:00:02.683Z,1.30
2023-02-27T16:01:02.710Z,1.30
2023-02-27T16:02:02.647Z,1.00
2023-02-27T16:03:02.643Z,1.10
2023-02-27T16:04:02.632Z,1.00
2023-02-27T16:05:02.626Z,1.00
2023-02-27T16:06:02.702Z,1.10
2023-02-27T16:07:02.580Z,1.40
2023-02-27T16:08:02.573Z,1.10
2023-02-27T16:09:02.566Z,1.00
2023-02-27T16:10:02.591Z,1.00
2023-02-27T16:11:02.526Z,1.00
2023-02-27T16:12:02.502Z,0.90
2023-02-27T16:13:02.494Z,0.90
2023-02-27T16:14:02.483Z,0.90
2023-02-27T16:15:02.515Z,1.10
2023-02-27T16:16:02.514Z,1.10
2023-02-27T16:17:02.444Z,1.60
2023-02-27T16:18:02.432Z,1.20
2023-02-27T16:19:02.422Z,1.10
2023-02-27T16:20:02.573Z,1.30
2023-02-27T16:21:02.448Z,1.80
2023-02-27T16:22:02.382Z,1.30
2023-02-27T16:23:02.362Z,1.70
2023-02-27T16:24:02.374Z,1.60
2023-02-27T16:25:02.342Z,1.50
2023-02-27T16:26:02.336Z,1.50
2023-02-27T16:27:02.306Z,1.60
2023-02-27T16:28:02.289Z,1.90
2023-02-27T16:29:02.300Z,1.40
2023-02-27T16:30:02.356Z,1.30
2023-02-27T16:31:02.259Z,1.20
2023-02-27T16:32:02.460Z,1.30
2023-02-27T16:33:02.228Z,1.20
2023-02-27T16:34:02.219Z,1.40
2023-02-27T16:35:02.226Z,1.30
2023-02-27T16:36:02.237Z,1.40
2023-02-27T16:37:02.190Z,1.20
2023-02-27T16:38:02.191Z,1.40
2023-02-27T16:39:02.169Z,1.20
2023-02-27T16:40:02.200Z,1.30
2023-02-27T16:41:02.251Z,1.10
2023-02-27T16:42:02.106Z,1.10
2023-02-27T16:43:02.097Z,1.10
2023-02-27T16:44:02.075Z,0.90
2023-02-27T16:45:02.078Z,1.00
2023-02-27T16:46:02.124Z,1.40
2023-02-27T16:47:02.041Z,1.10
2023-02-27T16:48:02.025Z,1.10
2023-02-27T16:49:14.195Z,1.30
2023-02-27T16:50:02.999Z,1.00
2023-02-27T16:51:02.018Z,1.20
2023-02-27T16:52:01.985Z,1.10
2023-02-27T16:53:01.973Z,1.20
2023-02-27T16:54:01.937Z,1.20
2023-02-27T16:55:01.935Z,1.20
2023-02-27T16:56:01.939Z,1.40
2023-02-27T16:57:01.905Z,1.30
2023-02-27T16:58:01.908Z,2.10
2023-02-27T16:59:01.883Z,1.70
2023-02-27T17:00:01.865Z,2.80
2023-02-27T17:01:01.884Z,2.40
2023-02-27T17:02:01.838Z,2.80
2023-02-27T17:03:01.834Z,1.90
2023-02-27T17:04:01.827Z,3.10
2023-02-27T17:05:01.852Z,4.40
2023-02-27T17:06:01.905Z,3.50
2023-02-27T17:07:01.807Z,3.60
2023-02-27T17:08:01.765Z,4.80
2023-02-27T17:09:01.775Z,3.80
2023-02-27T17:10:01.748Z,3.10
2023-02-27T17:11:01.753Z,1.80
2023-02-27T17:12:01.726Z,1.80
2023-02-27T17:13:01.705Z,1.50
2023-02-27T17:14:01.690Z,1.40
2023-02-27T17:15:01.675Z,2.10
2023-02-27T17:16:01.738Z,2.00
2023-02-27T17:17:04.464Z,2.70
2023-02-27T17:18:01.751Z,1.60
2023-02-27T17:19:01.631Z,2.00
2023-02-27T17:20:01.612Z,1.80
2023-02-27T17:21:01.711Z,1.30
2023-02-27T17:22:01.622Z,1.50
2023-02-27T17:23:01.632Z,1.80
2023-02-27T17:24:01.559Z,1.80
2023-02-27T17:25:01.547Z,1.20
2023-02-27T17:26:01.635Z,1.90
2023-02-27T17:27:01.530Z,2.40
2023-02-27T17:28:01.529Z,2.40
2023-02-27T17:29:01.504Z,2.70
2023-02-27T17:30:01.494Z,2.10
2023-02-27T17:31:01.573Z,1.40
2023-02-27T17:32:01.528Z,2.10
2023-02-27T17:33:04.060Z,1.50
2023-02-27T17:34:01.424Z,1.50
2023-02-27T17:35:01.447Z,1.40
2023-02-27T17:36:01.608Z,1.50
2023-02-27T17:37:01.393Z,1.50
2023-02-27T17:38:01.380Z,1.30
2023-02-27T17:39:01.376Z,1.80
2023-02-27T17:40:01.353Z,1.70
2023-02-27T17:41:01.362Z,1.50
2023-02-27T17:42:01.334Z,1.50
2023-02-27T17:43:01.314Z,1.10
2023-02-27T17:44:01.300Z,1.50
2023-02-27T17:45:01.321Z,1.40
2023-02-27T17:46:01.326Z,1.70
2023-02-27T17:47:01.261Z,1.30
2023-02-27T17:48:01.248Z,1.20
2023-02-27T17:49:01.256Z,1.30
2023-02-27T17:50:01.226Z,1.40
2023-02-27T17:51:01.231Z,1.30
2023-02-27T17:52:01.197Z,1.70
2023-02-27T17:53:01.182Z,4.00
2023-02-27T17:54:01.186Z,3.30
2023-02-27T17:55:01.160Z,2.40
2023-02-27T17:56:01.157Z,4.10
2023-02-27T17:57:01.130Z,1.60
2023-02-27T17:58:01.122Z,1.40
2023-02-27T17:59:01.105Z,2.60
2023-02-27T18:00:01.089Z,2.30
2023-02-27T18:01:01.104Z,1.60
2023-02-27T18:02:01.058Z,1.60
2023-02-27T18:03:01.056Z,1.40
2023-02-27T18:04:01.046Z,1.30
2023-02-27T18:05:01.031Z,1.50
2023-02-27T18:06:01.027Z,1.50
2023-02-27T18:07:01.007Z,2.80
2023-02-27T18:08:00.986Z,2.20
2023-02-27T18:09:00.976Z,3.40
2023-02-27T18:10:00.959Z,2.50
2023-02-27T18:11:00.975Z,2.20
2023-02-27T18:12:00.943Z,1.90
2023-02-27T18:13:00.920Z,2.00
2023-02-27T18:14:00.903Z,2.10
2023-02-27T18:15:00.893Z,1.50
2023-02-27T18:16:01.064Z,1.50
2023-02-27T18:17:00.865Z,1.80
2023-02-27T18:18:00.859Z,1.80
2023-02-27T18:19:00.842Z,1.50
2023-02-27T18:20:00.833Z,1.80
2023-02-27T18:21:00.839Z,1.80
2023-02-27T18:22:00.790Z,2.50
2023-02-27T18:23:00.788Z,4.60
2023-02-27T18:24:00.781Z,3.20
2023-02-27T18:25:00.766Z,5.50
2023-02-27T18:26:00.755Z,8.20
2023-02-27T18:27:00.741Z,7.70
2023-02-27T18:28:00.717Z,8.60
2023-02-27T18:29:00.825Z,6.80
2023-02-27T18:30:00.717Z,6.90
2023-02-27T18:31:00.725Z,5.80
2023-02-27T18:32:00.736Z,5.60
2023-02-27T18:33:00.663Z,3.80